Nickerson, Nebraska
Current Conditions -  °F | °C
As of 7:55 AM on Friday 31 Oct 2014 (Local Time) from KFET Reporting Station
Clear Clear  
Wind Chill: 27°   Ceiling: Unl
Heat Index: 27°   Visibility: 10mi
Dew Point: 21°   Wind: 3mph
Humidity: 79%   Direction: 340°NNW
Pressure: 30.55"   Gusts: NA
Location:  41.53°N, 96.47°W
Report Text: KFET 311255Z AUTO 34003KT 10SM CLR M03/M06 A3055 RMK AO2 T10281060
Loading
Personal Weather Stations






























Interactive Weather Map
Tropical Storm Tracking
New forecast layout! Learn more

10-Day Weather Forecast

Advertisements
Track Severe Weather on mobile